LFMH METAR and TAF | Updated Today

LFMH METAR

Saint-Étienne-Bouthéon Airport

Observation time: 17 min. ago

LFMH 292130Z AUTO 00000KT 9999 FEW056 BKN170 08/07 Q1006

Need help? Read our tutorial on how to read METARs or read the parsed version below.

Saint-Étienne-Bouthéon Airport (LFMH) METAR

  • Weather conditions on Thu, 29 Sep 2022 21:30:00 +0000 (17 min. ago):
  • Present conditions: Dry
  • Clouds: A few at 1707 meters; broken sky at 5182 meters
  • Visibility: Greater than 10 km
  • Wind: Calm
  • Temperature: 8 celsius
  • Dew point: 7 celsius
  • Pressure: 1006 millibars
  • Remarks: None


Useful to know...

  • Codes: LFMH/EBU
  • Airport elevation: 1325ft
  • Municipality: Saint-Étienne/Bouthéon
  • Country: France
  • Continent: Europe
  • Wikipedia page